Time,TemperatureF,DewpointF,PressureIn,WindDirection,WindDirectionDegrees,WindSpeedMPH,WindSpeedGustMPH,Humidity,HourlyPrecipIn,Conditions,Clouds,dailyrainin,SoftwareType,DateUTC
2013-08-01 00:01:00,62.6,48.0,29.81,NNW,336,4.0,5.0,59,0.00,,,0.00,meteohub,2013-08-01 06:01:00,
2013-08-01 00:07:00,62.1,48.0,29.81,NNW,336,5.0,5.0,60,0.00,,,0.00,meteohub,2013-08-01 06:07:00,
2013-08-01 00:13:00,61.9,47.8,29.81,NNW,336,1.0,5.0,60,0.00,,,0.00,meteohub,2013-08-01 06:13:00,
2013-08-01 00:19:00,61.3,47.8,29.81,NNW,336,4.0,5.0,61,0.00,,,0.00,meteohub,2013-08-01 06:19:00,
2013-08-01 00:25:00,61.2,48.0,29.81,NNW,336,3.0,6.0,62,0.00,,,0.00,meteohub,2013-08-01 06:25:00,
2013-08-01 00:31:00,61.0,47.8,29.81,NNW,336,4.0,6.0,62,0.00,,,0.00,meteohub,2013-08-01 06:31:00,
2013-08-01 00:37:00,61.0,47.8,29.81,NNW,336,5.0,6.0,62,0.00,,,0.00,meteohub,2013-08-01 06:37:00,
2013-08-01 00:43:00,61.0,48.4,29.81,NNW,337,3.0,6.0,63,0.00,,,0.00,meteohub,2013-08-01 06:43:00,
2013-08-01 00:49:00,60.6,48.0,29.81,NNW,337,5.0,7.0,63,0.00,,,0.00,meteohub,2013-08-01 06:49:00,
2013-08-01 00:55:00,60.6,48.0,29.81,NNW,341,6.0,7.0,63,0.00,,,0.00,meteohub,2013-08-01 06:55:00,
2013-08-01 01:01:00,60.6,48.0,29.81,NNW,345,4.0,7.0,63,0.00,,,0.00,meteohub,2013-08-01 07:01:00,
2013-08-01 01:07:00,60.6,48.4,29.81,North,351,3.0,7.0,64,0.00,,,0.00,meteohub,2013-08-01 07:07:00,
2013-08-01 01:13:00,60.6,48.4,29.81,North,0,4.0,7.0,64,0.00,,,0.00,meteohub,2013-08-01 07:13:00,
2013-08-01 01:20:00,60.4,48.2,29.81,North,0,5.0,7.0,64,0.00,,,0.00,meteohub,2013-08-01 07:20:00,
2013-08-01 01:26:00,60.3,48.4,29.81,North,0,4.0,7.0,65,0.00,,,0.00,meteohub,2013-08-01 07:26:00,
2013-08-01 01:32:00,59.7,48.4,29.81,North,0,3.0,7.0,66,0.00,,,0.00,meteohub,2013-08-01 07:32:00,
2013-08-01 01:38:00,59.5,48.6,29.81,North,0,2.0,7.0,67,0.00,,,0.00,meteohub,2013-08-01 07:38:00,
2013-08-01 01:44:00,59.2,48.6,29.81,North,0,4.0,5.0,68,0.00,,,0.00,meteohub,2013-08-01 07:44:00,
2013-08-01 01:50:00,58.8,48.7,29.81,North,0,3.0,5.0,69,0.00,,,0.00,meteohub,2013-08-01 07:50:00,
2013-08-01 01:56:00,58.6,49.3,29.80,North,0,3.0,5.0,71,0.00,,,0.00,meteohub,2013-08-01 07:56:00,
2013-08-01 02:02:00,58.5,49.8,29.80,North,0,3.0,5.0,73,0.00,,,0.00,meteohub,2013-08-01 08:02:00,
2013-08-01 02:08:00,58.1,49.8,29.80,North,0,3.0,5.0,74,0.00,,,0.00,meteohub,2013-08-01 08:08:00,
2013-08-01 02:14:00,57.9,50.0,29.80,North,0,3.0,5.0,75,0.00,,,0.00,meteohub,2013-08-01 08:14:00,
2013-08-01 02:20:00,57.9,50.4,29.80,North,0,2.0,5.0,76,0.00,,,0.00,meteohub,2013-08-01 08:20:00,
2013-08-01 02:27:00,57.9,50.4,29.80,North,0,3.0,4.0,76,0.00,,,0.00,meteohub,2013-08-01 08:27:00,
2013-08-01 02:32:00,57.7,50.5,29.80,North,0,4.0,5.0,77,0.00,,,0.00,meteohub,2013-08-01 08:32:00,
2013-08-01 02:38:00,57.7,50.5,29.80,North,0,3.0,5.0,77,0.00,,,0.00,meteohub,2013-08-01 08:38:00,
2013-08-01 02:44:00,57.6,50.4,29.80,North,0,2.0,5.0,77,0.00,,,0.00,meteohub,2013-08-01 08:44:00,
2013-08-01 02:50:00,57.6,50.4,29.80,North,0,3.0,5.0,77,0.00,,,0.00,meteohub,2013-08-01 08:50:00,
2013-08-01 02:57:00,57.2,50.0,29.80,North,0,2.0,4.0,77,0.00,,,0.00,meteohub,2013-08-01 08:57:00,
2013-08-01 03:03:00,57.0,49.8,29.80,North,0,1.0,4.0,77,0.00,,,0.00,meteohub,2013-08-01 09:03:00,
2013-08-01 03:09:00,56.8,49.6,29.80,North,0,0.0,4.0,77,0.00,,,0.00,meteohub,2013-08-01 09:09:00,
2013-08-01 03:15:00,57.0,49.5,29.80,North,0,1.0,4.0,76,0.00,,,0.00,meteohub,2013-08-01 09:15:00,
2013-08-01 03:21:00,56.8,49.3,29.80,North,0,2.0,4.0,76,0.00,,,0.00,meteohub,2013-08-01 09:21:00,
2013-08-01 03:28:00,56.5,49.3,29.80,North,0,1.0,3.0,77,0.00,,,0.00,meteohub,2013-08-01 09:28:00,
2013-08-01 03:34:00,56.1,48.9,29.80,North,0,0.0,3.0,77,0.00,,,0.00,meteohub,2013-08-01 09:34:00,
2013-08-01 03:41:00,56.1,48.9,29.80,North,0,1.0,3.0,77,0.00,,,0.00,meteohub,2013-08-01 09:41:00,
2013-08-01 03:48:00,55.9,48.9,29.80,North,0,2.0,3.0,77,0.00,,,0.00,meteohub,2013-08-01 09:48:00,
2013-08-01 03:53:00,55.8,48.9,29.80,North,0,3.0,3.0,78,0.00,,,0.00,meteohub,2013-08-01 09:53:00,
2013-08-01 04:00:00,55.8,48.9,29.80,North,0,3.0,4.0,78,0.00,,,0.00,meteohub,2013-08-01 10:00:00,
2013-08-01 04:07:00,55.8,49.3,29.80,North,0,4.0,6.0,79,0.00,,,0.00,meteohub,2013-08-01 10:07:00,
2013-08-01 04:12:00,55.9,49.5,29.79,North,0,3.0,6.0,79,0.00,,,0.00,meteohub,2013-08-01 10:12:00,
2013-08-01 04:18:00,55.9,49.5,29.79,North,0,3.0,6.0,79,0.00,,,0.00,meteohub,2013-08-01 10:18:00,
2013-08-01 04:25:00,56.1,49.3,29.80,North,0,2.0,5.0,78,0.00,,,0.00,meteohub,2013-08-01 10:25:00,
2013-08-01 04:31:00,56.3,49.1,29.79,North,0,2.0,5.0,77,0.00,,,0.00,meteohub,2013-08-01 10:31:00,
2013-08-01 04:37:00,56.5,49.3,29.79,North,0,4.0,5.0,77,0.00,,,0.00,meteohub,2013-08-01 10:37:00,
2013-08-01 04:44:00,56.3,49.1,29.79,North,0,3.0,5.0,77,0.00,,,0.00,meteohub,2013-08-01 10:44:00,
2013-08-01 04:50:00,56.1,48.9,29.79,North,0,2.0,5.0,77,0.00,,,0.00,meteohub,2013-08-01 10:50:00,
2013-08-01 04:57:00,55.8,48.7,29.79,North,0,2.0,5.0,77,0.00,,,0.00,meteohub,2013-08-01 10:57:00,
2013-08-01 05:02:00,55.6,48.9,29.79,North,0,2.0,4.0,78,0.00,,,0.00,meteohub,2013-08-01 11:02:00,
2013-08-01 05:10:00,55.2,48.7,29.79,North,0,3.0,4.0,79,0.00,,,0.00,meteohub,2013-08-01 11:10:00,
2013-08-01 05:15:00,55.0,48.9,29.80,North,0,3.0,4.0,80,0.00,,,0.00,meteohub,2013-08-01 11:15:00,
2013-08-01 05:21:00,54.9,48.7,29.80,North,0,2.0,4.0,80,0.00,,,0.00,meteohub,2013-08-01 11:21:00,
2013-08-01 05:28:00,54.7,48.6,29.80,North,0,1.0,4.0,80,0.00,,,0.00,meteohub,2013-08-01 11:28:00,
2013-08-01 05:35:00,54.5,48.7,29.80,North,0,1.0,4.0,81,0.00,,,0.00,meteohub,2013-08-01 11:35:00,
2013-08-01 05:41:00,54.3,48.6,29.80,North,0,0.0,3.0,81,0.00,,,0.00,meteohub,2013-08-01 11:41:00,
2013-08-01 05:47:00,54.3,48.6,29.80,North,0,3.0,3.0,81,0.00,,,0.00,meteohub,2013-08-01 11:47:00,
2013-08-01 05:54:00,54.1,48.4,29.80,North,0,2.0,4.0,81,0.00,,,0.00,meteohub,2013-08-01 11:54:00,
2013-08-01 06:00:00,54.0,48.6,29.80,North,0,1.0,4.0,82,0.00,,,0.00,meteohub,2013-08-01 12:00:00,
2013-08-01 06:07:00,53.8,48.4,29.80,North,0,3.0,4.0,82,0.00,,,0.00,meteohub,2013-08-01 12:07:00,
2013-08-01 06:13:00,53.6,48.2,29.80,North,0,2.0,3.0,82,0.00,,,0.00,meteohub,2013-08-01 12:13:00,
2013-08-01 06:19:00,53.4,48.0,29.80,North,0,1.0,3.0,82,0.00,,,0.00,meteohub,2013-08-01 12:19:00,
2013-08-01 06:25:00,53.4,48.4,29.80,North,0,0.0,3.0,83,0.00,,,0.00,meteohub,2013-08-01 12:25:00,
2013-08-01 06:32:00,53.8,48.7,29.81,North,0,0.0,2.0,83,0.00,,,0.00,meteohub,2013-08-01 12:32:00,
2013-08-01 06:38:00,53.8,48.7,29.81,North,0,0.0,1.0,83,0.00,,,0.00,meteohub,2013-08-01 12:38:00,
2013-08-01 06:44:00,54.0,48.9,29.81,North,0,0.0,0.0,83,0.00,,,0.00,meteohub,2013-08-01 12:44:00,
2013-08-01 06:50:00,54.3,49.3,29.81,North,0,0.0,0.0,83,0.00,,,0.00,meteohub,2013-08-01 12:50:00,
2013-08-01 06:56:00,55.0,49.6,29.81,North,0,0.0,0.0,82,0.00,,,0.00,meteohub,2013-08-01 12:56:00,
2013-08-01 07:02:00,55.9,49.8,29.80,North,0,2.0,2.0,80,0.00,,,0.00,meteohub,2013-08-01 13:02:00,
2013-08-01 07:08:00,57.0,49.5,29.80,North,0,0.0,2.0,76,0.00,,,0.00,meteohub,2013-08-01 13:08:00,
2013-08-01 07:14:00,57.9,50.0,29.80,North,0,0.0,2.0,75,0.00,,,0.00,meteohub,2013-08-01 13:14:00,
2013-08-01 07:21:00,57.9,49.6,29.79,North,0,0.0,3.0,74,0.00,,,0.00,meteohub,2013-08-01 13:21:00,
2013-08-01 07:27:00,57.9,50.0,29.79,North,0,0.0,3.0,75,0.00,,,0.00,meteohub,2013-08-01 13:27:00,
2013-08-01 07:32:00,57.9,49.6,29.79,North,0,2.0,3.0,74,0.00,,,0.00,meteohub,2013-08-01 13:32:00,
2013-08-01 07:37:00,57.7,49.8,29.79,North,0,0.0,4.0,75,0.00,,,0.00,meteohub,2013-08-01 13:37:00,
2013-08-01 07:42:00,58.5,49.8,29.79,North,0,1.0,4.0,73,0.00,,,0.00,meteohub,2013-08-01 13:42:00,
2013-08-01 07:48:00,58.6,49.6,29.79,North,0,1.0,4.0,72,0.00,,,0.00,meteohub,2013-08-01 13:48:00,
2013-08-01 07:54:00,59.2,49.8,29.79,North,0,0.0,5.0,71,0.00,,,0.00,meteohub,2013-08-01 13:54:00,
2013-08-01 08:00:00,60.3,50.0,29.79,North,0,2.0,5.0,69,0.00,,,0.00,meteohub,2013-08-01 14:00:00,
2013-08-01 08:06:00,60.8,50.2,29.79,North,0,1.0,4.0,68,0.00,,,0.00,meteohub,2013-08-01 14:06:00,
2013-08-01 08:12:00,61.7,50.2,29.79,North,0,2.0,4.0,66,0.00,,,0.00,meteohub,2013-08-01 14:12:00,
2013-08-01 08:20:00,63.0,49.3,29.79,WSW,257,12.0,12.0,61,0.00,,,0.00,meteohub,2013-08-01 14:20:00,
2013-08-01 08:25:00,63.7,50.0,29.79,SE,131,11.0,16.0,61,0.00,,,0.00,meteohub,2013-08-01 14:25:00,
2013-08-01 08:32:00,63.5,49.3,29.79,SSW,197,11.0,18.0,60,0.00,,,0.00,meteohub,2013-08-01 14:32:00,
2013-08-01 08:38:00,63.3,49.3,29.79,SW,222,10.0,18.0,60,0.00,,,0.00,meteohub,2013-08-01 14:38:00,
2013-08-01 08:44:00,63.5,49.3,29.78,South,174,14.0,22.0,60,0.00,,,0.00,meteohub,2013-08-01 14:44:00,
2013-08-01 08:50:00,63.7,49.5,29.78,SE,140,6.0,22.0,60,0.00,,,0.00,meteohub,2013-08-01 14:50:00,
2013-08-01 08:56:00,63.7,49.5,29.78,South,170,16.0,22.0,60,0.00,,,0.00,meteohub,2013-08-01 14:56:00,
2013-08-01 09:02:00,64.9,50.2,29.78,SSE,165,12.0,22.0,59,0.00,,,0.00,meteohub,2013-08-01 15:02:00,
2013-08-01 09:09:00,65.7,50.9,29.78,South,170,12.0,21.0,59,0.00,,,0.00,meteohub,2013-08-01 15:09:00,
2013-08-01 09:15:00,65.7,51.4,29.78,SSW,197,9.0,23.0,60,0.00,,,0.00,meteohub,2013-08-01 15:15:00,
2013-08-01 09:21:00,65.7,50.0,29.78,South,177,15.0,20.0,57,0.00,,,0.00,meteohub,2013-08-01 15:21:00,
2013-08-01 09:28:00,65.5,50.7,29.77,South,186,13.0,25.0,59,0.00,,,0.00,meteohub,2013-08-01 15:28:00,
2013-08-01 09:34:00,65.8,50.7,29.77,SE,146,12.0,25.0,58,0.00,,,0.00,meteohub,2013-08-01 15:34:00,
2013-08-01 09:40:00,66.4,50.7,29.77,SSE,167,13.0,23.0,57,0.00,,,0.00,meteohub,2013-08-01 15:40:00,
2013-08-01 09:47:00,66.0,49.8,29.77,South,171,16.0,23.0,56,0.00,,,0.00,meteohub,2013-08-01 15:47:00,
2013-08-01 09:53:00,65.7,50.0,29.77,SSE,168,9.0,23.0,57,0.00,,,0.00,meteohub,2013-08-01 15:53:00,
2013-08-01 09:59:00,65.7,50.5,29.77,South,183,9.0,22.0,58,0.00,,,0.00,meteohub,2013-08-01 15:59:00,
2013-08-01 10:05:00,65.8,51.1,29.77,South,184,7.0,21.0,59,0.00,,,0.00,meteohub,2013-08-01 16:05:00,
2013-08-01 10:12:00,66.0,50.4,29.77,SSW,193,11.0,20.0,57,0.00,,,0.00,meteohub,2013-08-01 16:12:00,
2013-08-01 10:18:00,66.4,51.1,29.77,SSW,193,5.0,16.0,58,0.00,,,0.00,meteohub,2013-08-01 16:18:00,
2013-08-01 10:25:00,66.6,49.8,29.77,South,170,10.0,16.0,55,0.00,,,0.00,meteohub,2013-08-01 16:25:00,
2013-08-01 10:31:00,66.9,49.8,29.77,SSW,195,13.0,19.0,54,0.00,,,0.00,meteohub,2013-08-01 16:31:00,
2013-08-01 10:38:00,66.9,50.2,29.77,South,179,15.0,24.0,55,0.00,,,0.00,meteohub,2013-08-01 16:38:00,
2013-08-01 10:44:00,66.7,50.5,29.77,SSW,198,8.0,24.0,56,0.00,,,0.00,meteohub,2013-08-01 16:44:00,
2013-08-01 10:50:00,66.7,50.0,29.76,SSW,197,10.0,24.0,55,0.00,,,0.00,meteohub,2013-08-01 16:50:00,
2013-08-01 10:56:00,66.7,50.5,29.76,South,178,14.0,22.0,56,0.00,,,0.00,meteohub,2013-08-01 16:56:00,
2013-08-01 11:02:00,67.5,50.7,29.76,SSW,192,9.0,22.0,55,0.00,,,0.00,meteohub,2013-08-01 17:02:00,
2013-08-01 11:09:00,67.6,50.9,29.76,SSW,195,13.0,20.0,55,0.00,,,0.00,meteohub,2013-08-01 17:09:00,
2013-08-01 11:15:00,68.5,51.3,29.76,SSW,193,10.0,19.0,54,0.00,,,0.00,meteohub,2013-08-01 17:15:00,
2013-08-01 11:22:00,69.4,51.6,29.76,South,176,12.0,19.0,53,0.00,,,0.00,meteohub,2013-08-01 17:22:00,
2013-08-01 11:28:00,70.5,50.9,29.75,South,178,9.0,19.0,50,0.00,,,0.00,meteohub,2013-08-01 17:28:00,
2013-08-01 11:34:00,70.3,50.4,29.75,SSW,194,8.0,16.0,49,0.00,,,0.00,meteohub,2013-08-01 17:34:00,
2013-08-01 11:41:00,70.9,49.6,29.75,WSW,237,7.0,15.0,47,0.00,,,0.00,meteohub,2013-08-01 17:41:00,
2013-08-01 11:47:00,72.0,45.0,29.75,SW,225,6.0,16.0,38,0.00,,,0.00,meteohub,2013-08-01 17:47:00,
2013-08-01 11:52:00,72.0,44.2,29.75,SW,224,12.0,16.0,37,0.00,,,0.00,meteohub,2013-08-01 17:52:00,
2013-08-01 12:00:00,71.1,44.2,29.75,SW,222,7.0,16.0,38,0.00,,,0.00,meteohub,2013-08-01 18:00:00,
2013-08-01 12:07:00,70.7,43.9,29.75,West,264,9.0,16.0,38,0.00,,,0.00,meteohub,2013-08-01 18:07:00,
2013-08-01 12:12:00,70.5,43.7,29.75,West,275,9.0,16.0,38,0.00,,,0.00,meteohub,2013-08-01 18:12:00,
2013-08-01 12:18:00,70.5,44.4,29.75,WSW,241,8.0,16.0,39,0.00,,,0.00,meteohub,2013-08-01 18:18:00,
2013-08-01 12:25:00,70.2,44.1,29.75,WSW,253,11.0,15.0,39,0.00,,,0.00,meteohub,2013-08-01 18:25:00,
2013-08-01 12:32:00,69.8,44.4,29.76,WSW,243,12.0,16.0,40,0.00,,,0.00,meteohub,2013-08-01 18:32:00,
2013-08-01 12:38:00,69.6,43.5,29.76,WSW,257,11.0,16.0,39,0.00,,,0.00,meteohub,2013-08-01 18:38:00,
2013-08-01 12:43:00,70.0,44.6,29.75,WSW,251,6.0,15.0,40,0.00,,,0.00,meteohub,2013-08-01 18:43:00,
2013-08-01 12:49:00,70.2,44.1,29.75,WSW,237,8.0,14.0,39,0.00,,,0.00,meteohub,2013-08-01 18:49:00,
2013-08-01 12:56:00,70.2,44.1,29.75,West,274,4.0,13.0,39,0.00,,,0.00,meteohub,2013-08-01 18:56:00,
2013-08-01 13:02:00,70.3,44.2,29.75,West,262,7.0,13.0,39,0.00,,,0.00,meteohub,2013-08-01 19:02:00,
2013-08-01 13:08:00,70.5,43.7,29.75,WSW,241,8.0,13.0,38,0.00,,,0.00,meteohub,2013-08-01 19:08:00,
2013-08-01 13:15:00,70.5,45.7,29.75,West,277,2.0,12.0,41,0.00,,,0.00,meteohub,2013-08-01 19:15:00,
2013-08-01 13:21:00,70.9,44.8,29.75,WNW,288,3.0,13.0,39,0.00,,,0.00,meteohub,2013-08-01 19:21:00,
2013-08-01 13:27:00,70.9,44.8,29.75,WNW,283,3.0,11.0,39,0.00,,,0.00,meteohub,2013-08-01 19:27:00,
2013-08-01 13:33:00,70.7,43.9,29.75,WNW,290,6.0,11.0,38,0.00,,,0.00,meteohub,2013-08-01 19:33:00,
2013-08-01 13:42:00,70.5,44.4,29.75,WNW,291,8.0,16.0,39,0.00,,,0.00,meteohub,2013-08-01 19:42:00,
2013-08-01 13:49:00,70.2,44.8,29.74,WSW,255,10.0,16.0,40,0.00,,,0.00,meteohub,2013-08-01 19:49:00,
2013-08-01 13:55:00,69.6,45.0,29.74,WNW,284,8.0,21.0,41,0.00,,,0.00,meteohub,2013-08-01 19:55:00,
2013-08-01 14:02:00,69.3,45.9,29.75,WSW,258,7.0,21.0,43,0.00,,,0.00,meteohub,2013-08-01 20:02:00,
2013-08-01 14:08:00,69.1,46.2,29.75,WSW,249,18.0,20.0,44,0.00,,,0.00,meteohub,2013-08-01 20:08:00,
2013-08-01 14:14:00,69.4,47.1,29.75,WSW,255,16.0,20.0,45,0.00,,,0.00,meteohub,2013-08-01 20:14:00,
2013-08-01 14:20:00,69.1,46.2,29.75,SW,236,14.0,23.0,44,0.00,,,0.00,meteohub,2013-08-01 20:20:00,
2013-08-01 14:26:00,68.7,45.9,29.75,SW,234,14.0,23.0,44,0.00,,,0.00,meteohub,2013-08-01 20:26:00,
2013-08-01 14:32:00,68.4,45.7,29.76,SW,230,10.0,23.0,44,0.00,,,0.00,meteohub,2013-08-01 20:32:00,
2013-08-01 14:38:00,68.0,45.9,29.76,WSW,252,10.0,24.0,45,0.00,,,0.00,meteohub,2013-08-01 20:38:00,
2013-08-01 14:44:00,67.8,45.7,29.76,SW,228,12.0,24.0,45,0.00,,,0.00,meteohub,2013-08-01 20:44:00,
2013-08-01 14:51:00,67.3,46.4,29.76,West,260,17.0,22.0,47,0.00,,,0.00,meteohub,2013-08-01 20:51:00,
2013-08-01 14:57:00,66.6,46.2,29.76,WSW,243,21.0,22.0,48,0.00,,,0.00,meteohub,2013-08-01 20:57:00,
2013-08-01 15:03:00,66.0,46.8,29.77,WSW,248,13.0,26.0,50,0.00,,,0.00,meteohub,2013-08-01 21:03:00,
2013-08-01 15:09:00,65.8,46.8,29.76,West,274,10.0,26.0,50,0.00,,,0.00,meteohub,2013-08-01 21:09:00,
2013-08-01 15:15:00,65.7,47.1,29.75,WNW,284,5.0,20.0,51,0.00,,,0.00,meteohub,2013-08-01 21:15:00,
2013-08-01 15:22:00,65.1,48.0,29.75,WSW,252,9.0,19.0,54,0.00,,,0.00,meteohub,2013-08-01 21:22:00,
2013-08-01 15:27:00,65.1,47.5,29.75,West,268,5.0,19.0,53,0.00,,,0.00,meteohub,2013-08-01 21:27:00,
2013-08-01 15:33:00,65.7,47.1,29.75,West,267,6.0,14.0,51,0.00,,,0.00,meteohub,2013-08-01 21:33:00,
2013-08-01 15:40:00,66.6,47.8,29.75,West,262,5.0,13.0,51,0.00,,,0.00,meteohub,2013-08-01 21:40:00,
2013-08-01 15:47:00,67.3,47.5,29.75,West,280,10.0,10.0,49,0.00,,,0.00,meteohub,2013-08-01 21:47:00,
2013-08-01 15:52:00,67.8,47.5,29.75,WNW,286,5.0,15.0,48,0.00,,,0.00,meteohub,2013-08-01 21:52:00,
2013-08-01 15:58:00,68.7,47.7,29.75,North,0,3.0,15.0,47,0.00,,,0.00,meteohub,2013-08-01 21:58:00,
2013-08-01 16:04:00,69.6,47.8,29.75,NNE,16,8.0,13.0,46,0.00,,,0.00,meteohub,2013-08-01 22:04:00,
2013-08-01 16:11:00,69.1,48.0,29.74,NE,55,12.0,13.0,47,0.00,,,0.00,meteohub,2013-08-01 22:11:00,
2013-08-01 16:17:00,67.8,47.5,29.74,NNE,32,12.0,15.0,48,0.00,,,0.00,meteohub,2013-08-01 22:17:00,
2013-08-01 16:23:00,67.3,47.5,29.74,NE,50,4.0,15.0,49,0.00,,,0.00,meteohub,2013-08-01 22:23:00,
2013-08-01 16:29:00,67.3,47.5,29.74,NNE,31,7.0,15.0,49,0.00,,,0.00,meteohub,2013-08-01 22:29:00,
2013-08-01 16:35:00,67.3,48.0,29.73,ENE,60,9.0,12.0,50,0.00,,,0.00,meteohub,2013-08-01 22:35:00,
2013-08-01 16:41:00,67.5,47.7,29.74,ENE,66,4.0,13.0,49,0.00,,,0.00,meteohub,2013-08-01 22:41:00,
2013-08-01 16:48:00,67.5,47.1,29.74,NNE,16,9.0,13.0,48,0.00,,,0.00,meteohub,2013-08-01 22:48:00,
2013-08-01 16:54:00,67.6,47.3,29.74,NNE,14,7.0,12.0,48,0.00,,,0.00,meteohub,2013-08-01 22:54:00,
2013-08-01 17:00:00,67.5,47.1,29.73,NNE,24,5.0,14.0,48,0.00,,,0.00,meteohub,2013-08-01 23:00:00,
2013-08-01 17:06:00,67.8,48.0,29.73,NNE,16,5.0,14.0,49,0.00,,,0.00,meteohub,2013-08-01 23:06:00,
2013-08-01 17:12:00,69.1,47.5,29.73,NNE,29,7.0,9.0,46,0.00,,,0.00,meteohub,2013-08-01 23:12:00,
2013-08-01 17:18:00,69.8,47.5,29.72,NNE,19,0.0,10.0,45,0.00,,,0.00,meteohub,2013-08-01 23:18:00,
2013-08-01 17:24:00,70.3,47.5,29.73,NNW,348,4.0,10.0,44,0.00,,,0.00,meteohub,2013-08-01 23:24:00,
2013-08-01 17:30:00,71.1,48.0,29.73,NE,41,4.0,10.0,44,0.00,,,0.00,meteohub,2013-08-01 23:30:00,
2013-08-01 17:36:00,70.9,47.3,29.72,ENE,64,0.0,8.0,43,0.00,,,0.00,meteohub,2013-08-01 23:36:00,
2013-08-01 17:42:00,71.1,47.5,29.72,ESE,119,5.0,8.0,43,0.00,,,0.00,meteohub,2013-08-01 23:42:00,
2013-08-01 17:49:00,71.2,47.7,29.72,East,80,4.0,8.0,43,0.00,,,0.00,meteohub,2013-08-01 23:49:00,
2013-08-01 17:55:00,71.2,46.9,29.71,East,80,0.0,8.0,42,0.00,,,0.00,meteohub,2013-08-01 23:55:00,
2013-08-01 18:01:00,71.2,47.7,29.71,East,80,2.0,7.0,43,0.00,,,0.00,meteohub,2013-08-02 00:01:00,
2013-08-01 18:08:00,71.2,46.9,29.71,ENE,66,0.0,5.0,42,0.00,,,0.00,meteohub,2013-08-02 00:08:00,
2013-08-01 18:13:00,71.2,47.7,29.71,ENE,66,2.0,5.0,43,0.00,,,0.00,meteohub,2013-08-02 00:13:00,
2013-08-01 18:19:00,71.6,46.6,29.71,WNW,300,2.0,5.0,41,0.00,,,0.00,meteohub,2013-08-02 00:19:00,
2013-08-01 18:25:00,71.8,46.8,29.71,West,276,9.0,13.0,41,0.00,,,0.00,meteohub,2013-08-02 00:25:00,
2013-08-01 18:31:00,71.8,46.2,29.71,WSW,246,9.0,13.0,40,0.00,,,0.00,meteohub,2013-08-02 00:31:00,
2013-08-01 18:38:00,71.4,45.9,29.71,West,259,12.0,14.0,40,0.00,,,0.00,meteohub,2013-08-02 00:38:00,
2013-08-01 18:44:00,71.4,46.6,29.71,West,263,8.0,16.0,41,0.00,,,0.00,meteohub,2013-08-02 00:44:00,
2013-08-01 18:51:00,71.8,46.2,29.72,WSW,245,9.0,16.0,40,0.00,,,0.00,meteohub,2013-08-02 00:51:00,
2013-08-01 18:57:00,71.8,46.8,29.72,North,356,3.0,12.0,41,0.00,,,0.00,meteohub,2013-08-02 00:57:00,
2013-08-01 19:03:00,72.0,46.9,29.72,NNW,336,3.0,11.0,41,0.00,,,0.00,meteohub,2013-08-02 01:03:00,
2013-08-01 19:09:00,71.8,46.8,29.72,NNW,336,0.0,11.0,41,0.00,,,0.00,meteohub,2013-08-02 01:09:00,
2013-08-01 19:15:00,71.4,46.6,29.72,NNW,336,3.0,8.0,41,0.00,,,0.00,meteohub,2013-08-02 01:15:00,
2013-08-01 19:21:00,70.5,46.9,29.73,West,259,2.0,7.0,43,0.00,,,0.00,meteohub,2013-08-02 01:21:00,
2013-08-01 19:27:00,69.6,47.3,29.73,West,259,5.0,10.0,45,0.00,,,0.00,meteohub,2013-08-02 01:27:00,
2013-08-01 19:34:00,68.9,47.3,29.73,West,270,3.0,10.0,46,0.00,,,0.00,meteohub,2013-08-02 01:34:00,
2013-08-01 19:40:00,68.4,47.3,29.72,West,260,3.0,7.0,47,0.00,,,0.00,meteohub,2013-08-02 01:40:00,
2013-08-01 19:46:00,67.8,46.9,29.72,West,266,5.0,9.0,47,0.00,,,0.00,meteohub,2013-08-02 01:46:00,
2013-08-01 19:51:00,67.6,47.3,29.72,West,266,2.0,9.0,48,0.00,,,0.00,meteohub,2013-08-02 01:51:00,
2013-08-01 19:59:00,67.3,46.9,29.72,West,264,2.0,9.0,48,0.00,,,0.00,meteohub,2013-08-02 01:59:00,
2013-08-01 20:05:00,66.9,47.1,29.73,West,268,3.0,10.0,49,0.00,,,0.00,meteohub,2013-08-02 02:05:00,
2013-08-01 20:12:00,66.7,46.9,29.73,West,268,5.0,10.0,49,0.00,,,0.00,meteohub,2013-08-02 02:12:00,
2013-08-01 20:17:00,66.6,47.3,29.73,West,268,0.0,7.0,50,0.00,,,0.00,meteohub,2013-08-02 02:17:00,
2013-08-01 20:23:00,66.4,47.1,29.74,West,268,3.0,5.0,50,0.00,,,0.00,meteohub,2013-08-02 02:23:00,
2013-08-01 20:29:00,66.2,46.9,29.74,West,268,1.0,5.0,50,0.00,,,0.00,meteohub,2013-08-02 02:29:00,
2013-08-01 20:36:00,66.0,47.3,29.75,West,268,0.0,6.0,51,0.00,,,0.00,meteohub,2013-08-02 02:36:00,
2013-08-01 20:42:00,65.8,47.1,29.75,West,268,0.0,5.0,51,0.00,,,0.00,meteohub,2013-08-02 02:42:00,
2013-08-01 20:48:00,65.7,48.0,29.76,West,262,10.0,10.0,53,0.00,,,0.00,meteohub,2013-08-02 02:48:00,
2013-08-01 20:55:00,63.9,49.6,29.75,WSW,252,10.0,13.0,60,0.00,,,0.00,meteohub,2013-08-02 02:55:00,
2013-08-01 21:02:00,61.0,50.7,29.75,WSW,256,6.0,21.0,69,0.00,,,0.00,meteohub,2013-08-02 03:02:00,
2013-08-01 21:08:00,60.3,50.9,29.76,WSW,251,5.0,21.0,71,0.00,,,0.00,meteohub,2013-08-02 03:08:00,
2013-08-01 21:14:00,60.3,51.3,29.75,WSW,244,5.0,16.0,72,0.00,,,0.00,meteohub,2013-08-02 03:14:00,
2013-08-01 21:20:00,60.3,51.3,29.75,SW,231,8.0,9.0,72,0.00,,,0.00,meteohub,2013-08-02 03:20:00,
2013-08-01 21:27:00,60.4,51.1,29.76,SW,235,6.0,11.0,71,0.00,,,0.00,meteohub,2013-08-02 03:27:00,
2013-08-01 21:32:00,60.6,50.7,29.75,SW,233,5.0,11.0,70,0.00,,,0.00,meteohub,2013-08-02 03:32:00,
2013-08-01 21:39:00,61.0,50.0,29.76,SW,234,7.0,11.0,67,0.00,,,0.00,meteohub,2013-08-02 03:39:00,
2013-08-01 21:45:00,61.5,49.6,29.75,WSW,242,7.0,12.0,65,0.00,,,0.00,meteohub,2013-08-02 03:45:00,
2013-08-01 21:51:00,61.9,49.6,29.76,SW,234,6.0,12.0,64,0.00,,,0.00,meteohub,2013-08-02 03:51:00,
2013-08-01 21:58:00,62.1,48.9,29.76,SW,230,8.0,13.0,62,0.00,,,0.00,meteohub,2013-08-02 03:58:00,
2013-08-01 22:01:00,62.1,49.3,29.75,SW,223,9.0,14.0,63,0.00,,,0.00,meteohub,2013-08-02 04:01:00,
2013-08-01 22:04:00,62.1,49.8,29.75,SW,223,5.0,14.0,64,0.00,,,0.00,meteohub,2013-08-02 04:04:00,
2013-08-01 22:07:00,61.7,49.8,29.75,SW,217,7.0,14.0,65,0.00,,,0.00,meteohub,2013-08-02 04:07:00,
2013-08-01 22:13:00,61.3,49.5,29.76,SW,228,5.0,14.0,65,0.00,,,0.00,meteohub,2013-08-02 04:13:00,
2013-08-01 22:16:00,61.3,49.5,29.76,SW,232,7.0,11.0,65,0.00,,,0.00,meteohub,2013-08-02 04:16:00,
2013-08-01 22:22:00,61.2,49.3,29.75,WSW,244,6.0,13.0,65,0.00,,,0.00,meteohub,2013-08-02 04:22:00,
2013-08-01 22:28:00,61.0,49.5,29.76,SW,235,9.0,13.0,66,0.00,,,0.00,meteohub,2013-08-02 04:28:00,
2013-08-01 22:32:00,61.0,49.1,29.76,SW,236,13.0,13.0,65,0.00,,,0.00,meteohub,2013-08-02 04:32:00,
2013-08-01 22:37:00,61.2,48.9,29.75,WSW,238,13.0,14.0,64,0.00,,,0.00,meteohub,2013-08-02 04:37:00,
2013-08-01 22:42:00,61.0,49.1,29.75,SW,236,4.0,14.0,65,0.00,,,0.00,meteohub,2013-08-02 04:42:00,
2013-08-01 22:49:00,60.6,49.3,29.73,SW,218,7.0,14.0,66,0.00,,,0.00,meteohub,2013-08-02 04:49:00,
2013-08-01 22:55:00,61.0,48.7,29.73,SW,219,6.0,12.0,64,0.00,,,0.00,meteohub,2013-08-02 04:55:00,
2013-08-01 23:01:00,61.0,48.7,29.74,SW,219,7.0,10.0,64,0.00,,,0.00,meteohub,2013-08-02 05:01:00,
2013-08-01 23:07:00,60.8,48.6,29.74,SW,224,8.0,9.0,64,0.00,,,0.00,meteohub,2013-08-02 05:07:00,
2013-08-01 23:13:00,60.4,48.6,29.73,SSW,207,4.0,12.0,65,0.00,,,0.00,meteohub,2013-08-02 05:13:00,
2013-08-01 23:19:00,60.4,48.6,29.73,SW,232,7.0,13.0,65,0.00,,,0.00,meteohub,2013-08-02 05:19:00,
2013-08-01 23:25:00,60.3,48.9,29.73,SSW,211,7.0,16.0,66,0.00,,,0.00,meteohub,2013-08-02 05:25:00,
2013-08-01 23:31:00,60.1,49.1,29.73,SW,222,7.0,16.0,67,0.00,,,0.00,meteohub,2013-08-02 05:31:00,
2013-08-01 23:37:00,59.7,49.5,29.73,SW,222,9.0,17.0,69,0.00,,,0.00,meteohub,2013-08-02 05:37:00,
2013-08-01 23:43:00,59.2,50.2,29.73,SSW,205,7.0,19.0,72,0.00,,,0.00,meteohub,2013-08-02 05:43:00,
2013-08-01 23:49:00,58.8,50.2,29.73,WSW,237,10.0,20.0,73,0.00,,,0.00,meteohub,2013-08-02 05:49:00,
2013-08-01 23:55:00,58.8,49.8,29.73,SW,233,11.0,19.0,72,0.00,,,0.00,meteohub,2013-08-02 05:55:00,